createdAt,value
2022-07-30T00:00:24.630Z,99.90
2022-07-30T00:02:52.448Z,99.90
2022-07-30T00:05:19.380Z,99.90
2022-07-30T00:07:46.201Z,99.90
2022-07-30T00:10:13.385Z,99.90
2022-07-30T00:12:40.258Z,99.90
2022-07-30T00:15:08.084Z,99.90
2022-07-30T00:17:34.932Z,99.90
2022-07-30T00:20:01.875Z,99.90
2022-07-30T00:22:31.018Z,99.90
2022-07-30T00:24:58.578Z,99.90
2022-07-30T00:27:25.501Z,99.90
2022-07-30T00:29:52.351Z,99.90
2022-07-30T00:32:19.213Z,99.90
2022-07-30T00:34:46.009Z,99.90
2022-07-30T00:37:12.972Z,99.90
2022-07-30T00:39:39.778Z,99.90
2022-07-30T00:42:06.663Z,99.90
2022-07-30T00:44:33.739Z,99.90
2022-07-30T00:47:00.791Z,99.90
2022-07-30T00:49:28.048Z,99.90
2022-07-30T00:51:55.022Z,99.90
2022-07-30T00:54:22.448Z,99.90
2022-07-30T00:56:49.531Z,99.90
2022-07-30T00:59:16.809Z,99.90
2022-07-30T01:01:43.643Z,99.90
2022-07-30T01:04:11.908Z,99.90
2022-07-30T01:06:39.957Z,99.90
2022-07-30T01:09:07.948Z,99.90
2022-07-30T01:11:38.642Z,99.90
2022-07-30T01:14:07.632Z,99.90
2022-07-30T01:16:35.869Z,99.90
2022-07-30T01:19:28.245Z,99.90
2022-07-30T01:22:06.897Z,99.90
2022-07-30T01:24:42.118Z,99.90
2022-07-30T01:27:10.873Z,99.90
2022-07-30T01:29:39.358Z,99.90
2022-07-30T01:32:08.600Z,99.90
2022-07-30T01:34:37.664Z,99.90
2022-07-30T01:37:08.490Z,99.90
2022-07-30T01:39:36.639Z,99.90
2022-07-30T01:42:07.343Z,99.90
2022-07-30T01:44:34.824Z,99.90
2022-07-30T01:47:03.090Z,99.90
2022-07-30T01:49:32.583Z,99.90
2022-07-30T01:52:01.412Z,99.90
2022-07-30T01:54:30.589Z,99.90
2022-07-30T01:57:00.576Z,99.90
2022-07-30T01:59:30.170Z,99.90
2022-07-30T02:01:57.052Z,99.90
2022-07-30T02:04:23.932Z,99.90
2022-07-30T02:07:23.194Z,99.90
2022-07-30T02:10:05.856Z,99.90
2022-07-30T02:12:34.052Z,99.90
2022-07-30T02:15:08.253Z,99.90
2022-07-30T02:18:23.680Z,99.90
2022-07-30T02:21:13.040Z,99.90
2022-07-30T02:23:44.090Z,99.90
2022-07-30T02:26:16.154Z,99.90
2022-07-30T02:28:45.323Z,99.90
2022-07-30T02:31:18.099Z,99.90
2022-07-30T02:33:48.880Z,99.90
2022-07-30T02:36:18.841Z,99.90
2022-07-30T02:38:47.408Z,99.90
2022-07-30T02:41:16.023Z,99.90
2022-07-30T02:43:43.440Z,99.90
2022-07-30T02:46:12.917Z,99.90
2022-07-30T02:48:41.288Z,99.90
2022-07-30T02:51:09.468Z,99.90
2022-07-30T02:53:38.525Z,99.90
2022-07-30T02:56:07.559Z,99.90
2022-07-30T02:58:37.817Z,99.90
2022-07-30T03:01:05.446Z,99.90
2022-07-30T03:03:32.777Z,99.90
2022-07-30T03:06:02.392Z,99.90
2022-07-30T03:08:31.044Z,99.90
2022-07-30T03:10:58.103Z,99.90
2022-07-30T03:13:26.019Z,99.90
2022-07-30T03:15:56.676Z,99.90
2022-07-30T03:18:24.683Z,99.90
2022-07-30T03:20:55.157Z,99.90
2022-07-30T03:23:23.786Z,99.90
2022-07-30T03:26:02.385Z,99.90
2022-07-30T03:28:32.272Z,99.90
2022-07-30T03:30:59.811Z,99.90
2022-07-30T03:33:38.234Z,99.90
2022-07-30T03:36:07.283Z,99.90
2022-07-30T03:38:37.578Z,99.90
2022-07-30T03:41:05.662Z,99.90
2022-07-30T03:43:34.172Z,99.90
2022-07-30T03:46:05.937Z,99.90
2022-07-30T03:48:35.605Z,99.90
2022-07-30T03:51:05.789Z,99.90
2022-07-30T03:53:33.116Z,99.90
2022-07-30T03:56:00.909Z,99.90
2022-07-30T03:58:28.028Z,99.90
2022-07-30T04:01:02.808Z,99.90
2022-07-30T04:03:32.798Z,99.90
2022-07-30T04:06:00.141Z,99.90
2022-07-30T04:08:28.387Z,99.90
2022-07-30T04:10:55.344Z,99.90
2022-07-30T04:13:22.788Z,99.90
2022-07-30T04:16:35.571Z,99.90
2022-07-30T04:18:53.388Z,99.90
2022-07-30T04:21:22.816Z,99.90
2022-07-30T04:24:02.187Z,99.90
2022-07-30T04:26:34.242Z,99.90
2022-07-30T04:29:02.583Z,99.90
2022-07-30T04:31:39.894Z,99.90
2022-07-30T04:34:08.148Z,99.90
2022-07-30T04:36:35.883Z,99.90
2022-07-30T04:39:03.910Z,99.90
2022-07-30T04:41:48.886Z,99.90
2022-07-30T04:44:20.456Z,99.90
2022-07-30T04:46:48.246Z,99.90
2022-07-30T04:49:17.610Z,99.90
2022-07-30T04:51:45.672Z,99.90
2022-07-30T04:54:15.399Z,99.90
2022-07-30T04:56:53.221Z,99.90
2022-07-30T04:59:23.885Z,99.90
2022-07-30T05:01:52.341Z,99.90
2022-07-30T05:04:20.569Z,99.90
2022-07-30T05:06:47.921Z,99.90
2022-07-30T05:09:16.278Z,99.90
2022-07-30T05:11:49.571Z,99.90
2022-07-30T05:14:16.485Z,99.90
2022-07-30T05:16:43.354Z,99.90
2022-07-30T05:19:12.221Z,99.90
2022-07-30T05:21:39.124Z,99.90
2022-07-30T05:24:06.306Z,99.90
2022-07-30T05:26:33.337Z,99.90
2022-07-30T05:29:00.174Z,99.90
2022-07-30T05:31:28.913Z,99.90
2022-07-30T05:34:02.548Z,99.90
2022-07-30T05:36:30.009Z,99.90
2022-07-30T05:38:56.826Z,99.90
2022-07-30T05:41:32.061Z,99.90
2022-07-30T05:44:01.838Z,99.90
2022-07-30T05:46:29.249Z,99.90
2022-07-30T05:48:56.239Z,99.90
2022-07-30T05:51:23.607Z,99.90
2022-07-30T05:53:50.476Z,99.90
2022-07-30T05:56:17.339Z,99.90
2022-07-30T05:58:44.267Z,99.90
2022-07-30T06:01:12.153Z,99.90
2022-07-30T06:03:39.237Z,99.90
2022-07-30T06:06:07.696Z,99.90
2022-07-30T06:08:35.238Z,99.90
2022-07-30T06:11:02.118Z,99.90
2022-07-30T06:13:29.182Z,99.90
2022-07-30T06:15:56.112Z,99.90
2022-07-30T06:18:23.517Z,99.90
2022-07-30T06:20:54.788Z,99.90
2022-07-30T06:23:22.731Z,99.90
2022-07-30T06:25:50.688Z,99.90
2022-07-30T06:28:36.929Z,99.90
2022-07-30T06:31:04.360Z,99.90
2022-07-30T06:33:31.313Z,99.90
2022-07-30T06:35:58.176Z,99.90
2022-07-30T06:38:25.100Z,99.90
2022-07-30T06:40:52.027Z,99.90
2022-07-30T06:43:19.529Z,99.90
2022-07-30T06:45:46.433Z,99.90
2022-07-30T06:48:13.393Z,99.90
2022-07-30T06:50:41.536Z,99.90
2022-07-30T06:53:08.849Z,99.90
2022-07-30T06:55:35.764Z,99.90
2022-07-30T06:58:02.690Z,99.90
2022-07-30T07:00:29.915Z,99.90
2022-07-30T07:02:56.755Z,99.90
2022-07-30T07:05:23.746Z,99.90
2022-07-30T07:07:58.737Z,99.90
2022-07-30T07:10:26.789Z,99.90
2022-07-30T07:12:53.901Z,99.90
2022-07-30T07:15:22.295Z,99.90
2022-07-30T07:18:03.618Z,99.90
2022-07-30T07:20:30.613Z,99.90
2022-07-30T07:22:57.638Z,99.90
2022-07-30T07:25:24.969Z,99.90
2022-07-30T07:28:11.130Z,99.90
2022-07-30T07:30:43.215Z,99.90
2022-07-30T07:33:10.712Z,99.90
2022-07-30T07:35:45.427Z,99.90
2022-07-30T07:38:16.511Z,99.90
2022-07-30T07:40:43.376Z,99.90
2022-07-30T07:43:10.193Z,99.90
2022-07-30T07:45:37.217Z,99.90
2022-07-30T07:48:04.463Z,99.90
2022-07-30T07:50:31.594Z,99.90
2022-07-30T07:52:58.431Z,99.90
2022-07-30T07:55:25.536Z,99.90
2022-07-30T07:57:52.732Z,99.90
2022-07-30T08:00:21.516Z,99.90
2022-07-30T08:02:49.303Z,99.90
2022-07-30T08:05:16.997Z,99.90
2022-07-30T08:07:45.662Z,99.90
2022-07-30T08:10:15.036Z,99.90
2022-07-30T08:12:42.755Z,99.90
2022-07-30T08:15:10.237Z,99.90
2022-07-30T08:17:42.163Z,99.90
2022-07-30T08:20:09.945Z,99.90
2022-07-30T08:22:36.927Z,99.90
2022-07-30T08:25:04.985Z,99.90
2022-07-30T08:27:32.036Z,99.90
2022-07-30T08:30:04.431Z,99.90
2022-07-30T08:32:31.301Z,99.90
2022-07-30T08:34:58.168Z,99.90
2022-07-30T08:37:25.028Z,99.90
2022-07-30T08:39:51.875Z,99.90
2022-07-30T08:42:19.465Z,99.90
2022-07-30T08:44:46.811Z,99.90
2022-07-30T08:47:18.520Z,99.90
2022-07-30T08:49:47.875Z,99.90
2022-07-30T08:52:15.216Z,99.90
2022-07-30T08:54:42.412Z,99.90
2022-07-30T08:57:11.826Z,99.90
2022-07-30T08:59:59.043Z,99.90
2022-07-30T09:02:27.807Z,99.90
2022-07-30T09:04:56.182Z,99.90
2022-07-30T09:07:23.060Z,99.90
2022-07-30T09:09:50.008Z,99.90
2022-07-30T09:12:37.192Z,99.90
2022-07-30T09:15:14.250Z,99.90
2022-07-30T09:17:57.568Z,99.90
2022-07-30T09:20:27.416Z,99.90
2022-07-30T09:22:57.052Z,99.90
2022-07-30T09:25:34.136Z,99.90
2022-07-30T09:28:01.540Z,99.90
2022-07-30T09:30:43.512Z,99.90
2022-07-30T09:33:10.350Z,99.90
2022-07-30T09:35:37.357Z,99.90
2022-07-30T09:38:06.656Z,99.90
2022-07-30T09:40:33.933Z,99.90
2022-07-30T09:43:11.570Z,99.90
2022-07-30T09:45:57.116Z,99.90
2022-07-30T09:48:28.669Z,99.90
2022-07-30T09:50:57.378Z,99.90
2022-07-30T09:53:24.675Z,99.50
2022-07-30T09:55:51.720Z,99.20
2022-07-30T10:01:05.470Z,99.10
2022-07-30T10:03:33.857Z,98.80
2022-07-30T10:06:02.964Z,99.20
2022-07-30T10:08:46.214Z,99.00
2022-07-30T10:11:31.537Z,99.60
2022-07-30T10:13:59.448Z,99.10
2022-07-30T10:16:27.743Z,99.30
2022-07-30T10:18:57.771Z,98.90
2022-07-30T10:21:26.378Z,98.80
2022-07-30T10:23:53.842Z,98.30
2022-07-30T10:26:21.325Z,98.40
2022-07-30T10:28:49.362Z,97.80
2022-07-30T10:31:49.089Z,97.80
2022-07-30T10:34:04.271Z,97.80
2022-07-30T10:36:32.892Z,97.90
2022-07-30T10:39:00.403Z,97.00
2022-07-30T10:41:48.086Z,96.20
2022-07-30T10:44:45.769Z,97.10
2022-07-30T10:47:16.366Z,95.50
2022-07-30T10:50:12.475Z,95.60
2022-07-30T10:52:50.792Z,96.60
2022-07-30T10:55:37.616Z,97.30
2022-07-30T10:58:10.187Z,97.00
2022-07-30T11:01:00.484Z,96.10
2022-07-30T11:03:40.410Z,95.20
2022-07-30T11:06:15.000Z,93.60
2022-07-30T11:08:45.204Z,94.30
2022-07-30T11:11:59.388Z,94.80
2022-07-30T11:14:12.749Z,95.00
2022-07-30T11:16:39.735Z,95.20
2022-07-30T11:19:56.148Z,93.50
2022-07-30T11:22:36.093Z,94.40
2022-07-30T11:25:12.743Z,94.30
2022-07-30T11:27:48.867Z,94.50
2022-07-30T11:30:17.031Z,95.00
2022-07-30T11:32:48.905Z,95.80
2022-07-30T11:35:23.294Z,95.70
2022-07-30T11:38:07.214Z,95.00
2022-07-30T11:40:48.654Z,93.70
2022-07-30T11:43:34.859Z,94.30
2022-07-30T11:46:16.339Z,92.60
2022-07-30T11:49:08.421Z,93.10
2022-07-30T11:51:43.557Z,92.30
2022-07-30T11:54:11.693Z,92.50
2022-07-30T11:56:49.679Z,92.50
2022-07-30T11:59:16.832Z,91.30
2022-07-30T12:01:43.964Z,91.50
2022-07-30T12:04:10.854Z,92.10
2022-07-30T12:06:48.757Z,92.30
2022-07-30T12:09:23.629Z,91.20
2022-07-30T12:11:54.925Z,91.20
2022-07-30T12:14:21.823Z,89.90
2022-07-30T12:16:53.627Z,90.70
2022-07-30T12:19:20.599Z,90.70
2022-07-30T12:21:52.598Z,90.60
2022-07-30T12:24:26.287Z,90.90
2022-07-30T12:27:04.170Z,90.20
2022-07-30T12:29:34.636Z,90.30
2022-07-30T12:32:01.853Z,90.20
2022-07-30T12:34:28.817Z,89.60
2022-07-30T12:36:55.666Z,86.30
2022-07-30T12:39:25.333Z,83.60
2022-07-30T12:41:56.015Z,81.20
2022-07-30T12:44:44.520Z,84.60
2022-07-30T12:47:24.096Z,80.70
2022-07-30T12:49:53.150Z,82.10
2022-07-30T12:52:27.591Z,84.70
2022-07-30T12:55:11.194Z,83.50
2022-07-30T12:57:55.624Z,84.30
2022-07-30T13:00:24.458Z,80.10
2022-07-30T13:02:51.646Z,81.90
2022-07-30T13:05:18.533Z,82.80
2022-07-30T13:07:59.632Z,82.80
2022-07-30T13:10:31.232Z,82.80
2022-07-30T13:12:59.087Z,84.80
2022-07-30T13:15:26.424Z,80.90
2022-07-30T13:17:53.341Z,81.90
2022-07-30T13:20:20.997Z,82.80
2022-07-30T13:22:47.895Z,82.50
2022-07-30T13:25:14.802Z,82.10
2022-07-30T13:27:41.644Z,80.80
2022-07-30T13:30:09.297Z,79.50
2022-07-30T13:32:39.119Z,79.50
2022-07-30T13:35:06.338Z,78.20
2022-07-30T13:37:37.591Z,75.70
2022-07-30T13:40:06.436Z,75.90
2022-07-30T13:42:33.603Z,74.80
2022-07-30T13:45:00.444Z,74.30
2022-07-30T13:47:27.302Z,73.70
2022-07-30T13:49:54.141Z,74.40
2022-07-30T13:52:21.065Z,75.20
2022-07-30T13:54:48.273Z,72.80
2022-07-30T13:57:15.194Z,73.40
2022-07-30T13:59:42.099Z,73.20
2022-07-30T14:02:09.105Z,73.50
2022-07-30T14:04:35.950Z,71.90
2022-07-30T14:07:02.980Z,73.20
2022-07-30T14:09:30.026Z,71.80
2022-07-30T14:11:57.021Z,68.70
2022-07-30T14:14:23.885Z,69.00
2022-07-30T14:16:53.833Z,69.10
2022-07-30T14:19:23.709Z,66.10
2022-07-30T14:21:52.780Z,65.40
2022-07-30T14:24:20.402Z,65.90
2022-07-30T14:26:47.497Z,67.00
2022-07-30T14:29:14.592Z,63.70
2022-07-30T14:31:41.557Z,63.60
2022-07-30T14:34:08.617Z,64.20
2022-07-30T14:36:37.213Z,63.80
2022-07-30T14:39:05.011Z,62.80
2022-07-30T14:41:32.351Z,60.90
2022-07-30T14:43:59.188Z,62.60
2022-07-30T14:46:26.021Z,62.80
2022-07-30T14:48:52.922Z,62.00
2022-07-30T14:51:25.670Z,63.00
2022-07-30T14:53:53.140Z,64.10
2022-07-30T14:56:22.131Z,66.10
2022-07-30T14:58:49.091Z,64.70
2022-07-30T15:01:17.110Z,63.50
2022-07-30T15:03:45.258Z,63.60
2022-07-30T15:06:13.106Z,63.60
2022-07-30T15:08:40.240Z,63.50
2022-07-30T15:11:09.707Z,64.00
2022-07-30T15:13:37.179Z,64.30
2022-07-30T15:16:07.963Z,63.10
2022-07-30T15:18:34.797Z,63.30
2022-07-30T15:21:01.751Z,63.40
2022-07-30T15:23:28.618Z,61.60
2022-07-30T15:25:55.834Z,63.10
2022-07-30T15:28:23.895Z,63.30
2022-07-30T15:30:50.837Z,63.40
2022-07-30T15:33:17.823Z,63.50
2022-07-30T15:35:44.693Z,59.80
2022-07-30T15:38:11.573Z,59.50
2022-07-30T15:40:38.488Z,60.90
2022-07-30T15:43:09.784Z,60.10
2022-07-30T15:45:52.442Z,61.50
2022-07-30T15:48:24.948Z,60.80
2022-07-30T15:51:04.748Z,62.40
2022-07-30T15:53:32.724Z,64.70
2022-07-30T15:56:00.586Z,65.60
2022-07-30T15:58:27.882Z,64.60
2022-07-30T16:00:54.938Z,64.70
2022-07-30T16:03:21.912Z,65.20
2022-07-30T16:05:52.398Z,66.20
2022-07-30T16:08:20.858Z,66.70
2022-07-30T16:10:48.687Z,67.90
2022-07-30T16:13:15.970Z,68.00
2022-07-30T16:15:42.821Z,67.90
2022-07-30T16:18:10.408Z,68.60
2022-07-30T16:20:37.459Z,69.10
2022-07-30T16:23:06.277Z,69.00
2022-07-30T16:25:37.215Z,69.40
2022-07-30T16:28:04.813Z,69.20
2022-07-30T16:30:31.639Z,70.00
2022-07-30T16:32:58.637Z,70.30
2022-07-30T16:35:25.851Z,70.60
2022-07-30T16:37:54.142Z,71.20
2022-07-30T16:40:21.186Z,70.30
2022-07-30T16:42:48.043Z,71.10
2022-07-30T16:45:15.018Z,72.60
2022-07-30T16:47:41.849Z,72.10
2022-07-30T16:50:09.181Z,72.50
2022-07-30T16:52:36.050Z,72.60
2022-07-30T16:55:03.133Z,71.70
2022-07-30T16:57:29.958Z,72.40
2022-07-30T16:59:56.821Z,72.20
2022-07-30T17:02:24.001Z,72.50
2022-07-30T17:04:51.527Z,72.80
2022-07-30T17:07:18.441Z,72.60
2022-07-30T17:09:45.301Z,72.90
2022-07-30T17:12:19.007Z,73.10
2022-07-30T17:14:52.193Z,73.10
2022-07-30T17:17:19.022Z,73.70
2022-07-30T17:19:45.915Z,73.20
2022-07-30T17:22:12.735Z,73.50
2022-07-30T17:24:40.028Z,73.80
2022-07-30T17:27:07.327Z,74.00
2022-07-30T17:29:34.233Z,74.40
2022-07-30T17:32:15.296Z,74.30
2022-07-30T17:34:42.305Z,74.40
2022-07-30T17:37:09.356Z,74.90
2022-07-30T17:40:19.846Z,74.30
2022-07-30T17:42:26.237Z,74.70
2022-07-30T17:44:53.159Z,74.90
2022-07-30T17:47:20.132Z,75.00
2022-07-30T17:49:47.535Z,75.10
2022-07-30T17:52:14.472Z,75.30
2022-07-30T17:54:41.559Z,75.30
2022-07-30T17:57:08.440Z,75.90
2022-07-30T17:59:35.312Z,75.70
2022-07-30T18:02:11.212Z,75.60
2022-07-30T18:04:38.108Z,75.50
2022-07-30T18:07:07.292Z,75.60
2022-07-30T18:09:36.122Z,76.00
2022-07-30T18:12:06.960Z,76.00
2022-07-30T18:14:34.109Z,76.20
2022-07-30T18:17:02.767Z,76.40
2022-07-30T18:19:29.691Z,76.90
2022-07-30T18:21:57.042Z,76.80
2022-07-30T18:24:25.074Z,76.80
2022-07-30T18:26:52.466Z,76.90
2022-07-30T18:29:22.286Z,77.30
2022-07-30T18:31:49.191Z,77.30
2022-07-30T18:34:16.119Z,77.20
2022-07-30T18:36:42.955Z,77.60
2022-07-30T18:39:09.784Z,78.00
2022-07-30T18:41:36.616Z,78.20
2022-07-30T18:44:03.736Z,78.20
2022-07-30T18:46:30.546Z,78.60
2022-07-30T18:49:10.827Z,78.60
2022-07-30T18:51:46.507Z,78.70
2022-07-30T18:54:14.849Z,78.60
2022-07-30T18:56:42.006Z,79.60
2022-07-30T18:59:08.872Z,80.00
2022-07-30T19:01:36.071Z,79.80
2022-07-30T19:04:02.942Z,80.20
2022-07-30T19:06:31.397Z,80.00
2022-07-30T19:09:00.083Z,80.40
2022-07-30T19:11:27.037Z,80.90
2022-07-30T19:13:53.947Z,81.00
2022-07-30T19:16:21.490Z,81.90
2022-07-30T19:18:48.611Z,81.20
2022-07-30T19:21:15.587Z,81.40
2022-07-30T19:23:42.422Z,82.10
2022-07-30T19:26:09.276Z,82.70
2022-07-30T19:28:36.389Z,82.50
2022-07-30T19:31:03.306Z,82.60
2022-07-30T19:33:30.147Z,83.30
2022-07-30T19:35:56.947Z,83.60
2022-07-30T19:38:23.918Z,83.30
2022-07-30T19:40:51.760Z,83.50
2022-07-30T19:43:23.752Z,83.50
2022-07-30T19:45:51.221Z,83.60
2022-07-30T19:48:29.231Z,83.70
2022-07-30T19:50:59.282Z,84.10
2022-07-30T19:53:28.113Z,84.60
2022-07-30T19:56:03.250Z,85.10
2022-07-30T19:58:33.775Z,85.30
2022-07-30T20:01:01.573Z,86.00
2022-07-30T20:03:31.605Z,85.90
2022-07-30T20:06:00.182Z,84.80
2022-07-30T20:08:30.148Z,84.40
2022-07-30T20:10:59.200Z,85.30
2022-07-30T20:13:45.370Z,86.20
2022-07-30T20:16:17.471Z,87.00
2022-07-30T20:18:46.220Z,87.10
2022-07-30T20:21:15.638Z,86.80
2022-07-30T20:23:45.471Z,87.20
2022-07-30T20:26:14.923Z,87.50
2022-07-30T20:28:45.689Z,87.40
2022-07-30T20:31:13.035Z,87.60
2022-07-30T20:33:40.283Z,88.20
2022-07-30T20:36:09.689Z,88.20
2022-07-30T20:38:38.729Z,88.50
2022-07-30T20:41:09.692Z,88.20
2022-07-30T20:43:46.098Z,88.70
2022-07-30T20:46:19.992Z,89.00
2022-07-30T20:48:47.005Z,89.20
2022-07-30T20:51:14.045Z,89.20
2022-07-30T20:53:45.261Z,89.30
2022-07-30T20:58:59.679Z,90.10
2022-07-30T21:01:28.621Z,90.10
2022-07-30T21:03:57.699Z,90.00
2022-07-30T21:06:26.281Z,90.10
2022-07-30T21:08:55.266Z,90.10
2022-07-30T21:11:23.412Z,90.30
2022-07-30T21:13:50.597Z,90.40
2022-07-30T21:16:21.407Z,90.30
2022-07-30T21:18:50.357Z,90.40
2022-07-30T21:21:30.461Z,90.50
2022-07-30T21:24:06.213Z,90.50
2022-07-30T21:26:41.714Z,90.40
2022-07-30T21:29:09.174Z,90.60
2022-07-30T21:32:00.472Z,90.90
2022-07-30T21:34:25.017Z,91.00
2022-07-30T21:36:53.823Z,91.10
2022-07-30T21:39:20.679Z,90.90
2022-07-30T21:41:56.561Z,91.00
2022-07-30T21:44:23.750Z,91.10
2022-07-30T21:46:50.824Z,90.80
2022-07-30T21:49:17.831Z,90.50
2022-07-30T21:51:44.798Z,90.80
2022-07-30T21:54:12.464Z,90.80
2022-07-30T21:56:42.767Z,90.70
2022-07-30T21:59:09.757Z,90.80
2022-07-30T22:01:37.988Z,90.90
2022-07-30T22:04:09.234Z,90.80
2022-07-30T22:06:38.389Z,90.60
2022-07-30T22:09:18.679Z,90.80
2022-07-30T22:11:55.677Z,91.00
2022-07-30T22:14:22.977Z,90.70
2022-07-30T22:16:52.545Z,90.80
2022-07-30T22:19:21.717Z,90.80
2022-07-30T22:21:50.953Z,91.20
2022-07-30T22:24:29.115Z,91.10
2022-07-30T22:27:09.759Z,91.20
2022-07-30T22:29:42.975Z,91.40
2022-07-30T22:32:11.162Z,91.50
2022-07-30T22:34:38.097Z,91.30
2022-07-30T22:37:12.512Z,91.50
2022-07-30T22:39:50.872Z,91.80
2022-07-30T22:42:18.702Z,91.70
2022-07-30T22:44:47.449Z,91.80
2022-07-30T22:50:04.354Z,91.80
2022-07-30T22:52:37.841Z,91.80
2022-07-30T22:55:09.173Z,92.00
2022-07-30T23:00:27.495Z,91.70
2022-07-30T23:02:56.132Z,91.80
2022-07-30T23:05:23.616Z,91.50
2022-07-30T23:07:50.829Z,91.40
2022-07-30T23:10:20.339Z,91.90
2022-07-30T23:12:26.420Z,90.00
2022-07-30T23:12:30.469Z,91.90
2022-07-30T23:12:34.600Z,91.90
2022-07-30T23:12:51.231Z,91.60
2022-07-30T23:15:20.930Z,91.90
2022-07-30T23:17:48.091Z,92.00
2022-07-30T23:20:17.928Z,91.80
2022-07-30T23:22:44.783Z,91.80
2022-07-30T23:25:12.963Z,91.60
2022-07-30T23:27:40.969Z,91.70
2022-07-30T23:30:09.951Z,91.50
2022-07-30T23:32:36.945Z,91.50
2022-07-30T23:35:04.649Z,91.50
2022-07-30T23:37:38.007Z,91.40
2022-07-30T23:40:17.440Z,91.30
2022-07-30T23:42:44.473Z,91.30
2022-07-30T23:45:11.573Z,91.40
2022-07-30T23:48:02.361Z,91.30
2022-07-30T23:50:25.463Z,91.30
2022-07-30T23:52:52.285Z,91.30
2022-07-30T23:55:19.364Z,91.40
2022-07-30T23:57:46.191Z,91.30
